sensor_id;sensor_type;location;lat;lon;timestamp;P1;durP1;ratioP1;P2;durP2;ratioP2
74791;SDS011;63319;46.046;17.802;2023-03-14T00:00:48;8.95;;;4.72;;
74791;SDS011;63319;46.046;17.802;2023-03-14T00:03:51;8.47;;;4.67;;
74791;SDS011;63319;46.046;17.802;2023-03-14T00:06:54;9.33;;;4.80;;
74791;SDS011;63319;46.046;17.802;2023-03-14T00:09:57;9.30;;;4.57;;
74791;SDS011;63319;46.046;17.802;2023-03-14T00:13:00;8.95;;;4.75;;
74791;SDS011;63319;46.046;17.802;2023-03-14T00:16:09;8.77;;;4.65;;
74791;SDS011;63319;46.046;17.802;2023-03-14T00:19:16;8.60;;;5.03;;
74791;SDS011;63319;46.046;17.802;2023-03-14T00:22:24;11.60;;;5.00;;
74791;SDS011;63319;46.046;17.802;2023-03-14T00:25:29;7.88;;;4.15;;
74791;SDS011;63319;46.046;17.802;2023-03-14T00:28:43;8.70;;;4.78;;
74791;SDS011;63319;46.046;17.802;2023-03-14T00:31:47;7.60;;;4.30;;
74791;SDS011;63319;46.046;17.802;2023-03-14T00:34:53;7.30;;;4.20;;
74791;SDS011;63319;46.046;17.802;2023-03-14T00:37:55;8.30;;;4.40;;
74791;SDS011;63319;46.046;17.802;2023-03-14T00:40:59;8.02;;;4.47;;
74791;SDS011;63319;46.046;17.802;2023-03-14T00:44:08;8.80;;;4.55;;
74791;SDS011;63319;46.046;17.802;2023-03-14T00:47:11;8.02;;;4.63;;
74791;SDS011;63319;46.046;17.802;2023-03-14T00:50:15;8.30;;;4.63;;
74791;SDS011;63319;46.046;17.802;2023-03-14T00:53:20;9.30;;;4.60;;
74791;SDS011;63319;46.046;17.802;2023-03-14T00:56:23;8.90;;;4.80;;
74791;SDS011;63319;46.046;17.802;2023-03-14T00:59:29;8.63;;;4.20;;
74791;SDS011;63319;46.046;17.802;2023-03-14T01:02:36;8.48;;;5.35;;
74791;SDS011;63319;46.046;17.802;2023-03-14T01:05:39;8.30;;;4.50;;
74791;SDS011;63319;46.046;17.802;2023-03-14T01:08:43;9.10;;;4.83;;
74791;SDS011;63319;46.046;17.802;2023-03-14T01:11:47;8.80;;;4.70;;
74791;SDS011;63319;46.046;17.802;2023-03-14T01:14:53;8.77;;;4.63;;
74791;SDS011;63319;46.046;17.802;2023-03-14T01:17:56;8.82;;;4.55;;
74791;SDS011;63319;46.046;17.802;2023-03-14T01:20:59;8.67;;;4.50;;
74791;SDS011;63319;46.046;17.802;2023-03-14T01:24:04;8.60;;;4.93;;
74791;SDS011;63319;46.046;17.802;2023-03-14T01:27:08;8.38;;;4.53;;
74791;SDS011;63319;46.046;17.802;2023-03-14T01:30:12;7.68;;;4.72;;
74791;SDS011;63319;46.046;17.802;2023-03-14T01:33:20;8.50;;;5.15;;
74791;SDS011;63319;46.046;17.802;2023-03-14T01:36:23;9.27;;;4.57;;
74791;SDS011;63319;46.046;17.802;2023-03-14T01:39:27;9.83;;;4.47;;
74791;SDS011;63319;46.046;17.802;2023-03-14T01:42:31;8.45;;;4.50;;
74791;SDS011;63319;46.046;17.802;2023-03-14T01:49:22;9.20;;;4.82;;
74791;SDS011;63319;46.046;17.802;2023-03-14T01:52:37;8.20;;;3.93;;
74791;SDS011;63319;46.046;17.802;2023-03-14T01:55:45;8.13;;;4.63;;
74791;SDS011;63319;46.046;17.802;2023-03-14T01:58:48;8.38;;;4.25;;
74791;SDS011;63319;46.046;17.802;2023-03-14T02:01:54;8.30;;;4.45;;
74791;SDS011;63319;46.046;17.802;2023-03-14T02:05:04;8.98;;;4.63;;
74791;SDS011;63319;46.046;17.802;2023-03-14T02:08:11;7.90;;;4.27;;
74791;SDS011;63319;46.046;17.802;2023-03-14T02:11:33;9.20;;;4.47;;
74791;SDS011;63319;46.046;17.802;2023-03-14T02:14:49;8.82;;;4.65;;
74791;SDS011;63319;46.046;17.802;2023-03-14T02:18:13;7.70;;;4.10;;
74791;SDS011;63319;46.046;17.802;2023-03-14T02:22:13;7.78;;;4.22;;
74791;SDS011;63319;46.046;17.802;2023-03-14T02:28:50;8.20;;;4.77;;
74791;SDS011;63319;46.046;17.802;2023-03-14T02:31:55;9.30;;;5.10;;
74791;SDS011;63319;46.046;17.802;2023-03-14T02:34:59;8.93;;;4.63;;
74791;SDS011;63319;46.046;17.802;2023-03-14T02:41:22;6.63;;;3.97;;
74791;SDS011;63319;46.046;17.802;2023-03-14T02:44:34;8.27;;;4.60;;
74791;SDS011;63319;46.046;17.802;2023-03-14T02:47:39;6.93;;;3.72;;
74791;SDS011;63319;46.046;17.802;2023-03-14T02:50:47;8.05;;;4.07;;
74791;SDS011;63319;46.046;17.802;2023-03-14T02:53:53;7.50;;;4.13;;
74791;SDS011;63319;46.046;17.802;2023-03-14T02:56:59;8.10;;;4.50;;
74791;SDS011;63319;46.046;17.802;2023-03-14T03:00:02;9.60;;;4.70;;
74791;SDS011;63319;46.046;17.802;2023-03-14T03:03:13;8.55;;;5.13;;
74791;SDS011;63319;46.046;17.802;2023-03-14T03:06:16;10.35;;;4.20;;
74791;SDS011;63319;46.046;17.802;2023-03-14T03:09:19;7.97;;;4.30;;
74791;SDS011;63319;46.046;17.802;2023-03-14T03:12:21;7.93;;;4.50;;
74791;SDS011;63319;46.046;17.802;2023-03-14T03:15:25;8.60;;;4.70;;
74791;SDS011;63319;46.046;17.802;2023-03-14T03:18:29;8.70;;;4.82;;
74791;SDS011;63319;46.046;17.802;2023-03-14T03:21:33;8.75;;;4.38;;
74791;SDS011;63319;46.046;17.802;2023-03-14T03:24:37;7.80;;;4.40;;
74791;SDS011;63319;46.046;17.802;2023-03-14T03:27:40;10.10;;;4.03;;
74791;SDS011;63319;46.046;17.802;2023-03-14T03:30:45;8.23;;;4.00;;
74791;SDS011;63319;46.046;17.802;2023-03-14T03:33:48;8.43;;;4.38;;
74791;SDS011;63319;46.046;17.802;2023-03-14T03:36:51;7.63;;;4.32;;
74791;SDS011;63319;46.046;17.802;2023-03-14T03:39:53;7.50;;;4.03;;
74791;SDS011;63319;46.046;17.802;2023-03-14T03:42:56;7.30;;;3.90;;
74791;SDS011;63319;46.046;17.802;2023-03-14T03:46:02;7.60;;;4.17;;
74791;SDS011;63319;46.046;17.802;2023-03-14T03:49:08;8.38;;;4.32;;
74791;SDS011;63319;46.046;17.802;2023-03-14T03:52:11;7.53;;;3.95;;
74791;SDS011;63319;46.046;17.802;2023-03-14T03:55:14;8.07;;;4.32;;
74791;SDS011;63319;46.046;17.802;2023-03-14T03:58:17;6.90;;;4.07;;
74791;SDS011;63319;46.046;17.802;2023-03-14T04:01:21;6.70;;;3.63;;
74791;SDS011;63319;46.046;17.802;2023-03-14T04:04:27;7.30;;;4.07;;
74791;SDS011;63319;46.046;17.802;2023-03-14T04:07:33;8.52;;;3.97;;
74791;SDS011;63319;46.046;17.802;2023-03-14T04:10:41;9.35;;;4.40;;
74791;SDS011;63319;46.046;17.802;2023-03-14T04:13:57;7.63;;;4.30;;
74791;SDS011;63319;46.046;17.802;2023-03-14T04:17:01;8.13;;;4.60;;
74791;SDS011;63319;46.046;17.802;2023-03-14T04:20:05;8.32;;;4.22;;
74791;SDS011;63319;46.046;17.802;2023-03-14T04:23:14;7.43;;;3.97;;
74791;SDS011;63319;46.046;17.802;2023-03-14T04:26:17;7.28;;;4.10;;
74791;SDS011;63319;46.046;17.802;2023-03-14T04:29:20;6.77;;;3.70;;
74791;SDS011;63319;46.046;17.802;2023-03-14T04:32:23;7.77;;;4.37;;
74791;SDS011;63319;46.046;17.802;2023-03-14T04:35:26;6.40;;;3.80;;
74791;SDS011;63319;46.046;17.802;2023-03-14T04:38:34;7.53;;;4.32;;
74791;SDS011;63319;46.046;17.802;2023-03-14T04:41:38;8.45;;;4.20;;
74791;SDS011;63319;46.046;17.802;2023-03-14T04:44:42;7.40;;;4.27;;
74791;SDS011;63319;46.046;17.802;2023-03-14T04:47:47;7.40;;;4.13;;
74791;SDS011;63319;46.046;17.802;2023-03-14T04:50:54;7.90;;;4.13;;
74791;SDS011;63319;46.046;17.802;2023-03-14T04:54:00;9.60;;;4.20;;
74791;SDS011;63319;46.046;17.802;2023-03-14T04:57:04;7.20;;;4.15;;
74791;SDS011;63319;46.046;17.802;2023-03-14T05:00:09;7.20;;;3.90;;
74791;SDS011;63319;46.046;17.802;2023-03-14T05:03:23;7.73;;;3.87;;
74791;SDS011;63319;46.046;17.802;2023-03-14T05:06:48;9.10;;;4.65;;
74791;SDS011;63319;46.046;17.802;2023-03-14T05:10:10;9.65;;;3.90;;
74791;SDS011;63319;46.046;17.802;2023-03-14T05:13:31;7.15;;;3.78;;
74791;SDS011;63319;46.046;17.802;2023-03-14T05:16:53;7.80;;;4.30;;
74791;SDS011;63319;46.046;17.802;2023-03-14T05:20:14;8.37;;;4.47;;
74791;SDS011;63319;46.046;17.802;2023-03-14T05:23:49;7.55;;;3.88;;
74791;SDS011;63319;46.046;17.802;2023-03-14T05:27:10;7.80;;;4.22;;
74791;SDS011;63319;46.046;17.802;2023-03-14T05:30:21;7.40;;;3.72;;
74791;SDS011;63319;46.046;17.802;2023-03-14T05:33:38;8.17;;;3.70;;
74791;SDS011;63319;46.046;17.802;2023-03-14T05:37:11;7.53;;;4.30;;
74791;SDS011;63319;46.046;17.802;2023-03-14T05:40:36;7.88;;;4.15;;
74791;SDS011;63319;46.046;17.802;2023-03-14T05:43:48;8.18;;;4.40;;
74791;SDS011;63319;46.046;17.802;2023-03-14T05:47:09;8.35;;;4.43;;
74791;SDS011;63319;46.046;17.802;2023-03-14T05:50:33;8.70;;;4.27;;
74791;SDS011;63319;46.046;17.802;2023-03-14T05:53:55;7.37;;;4.00;;
74791;SDS011;63319;46.046;17.802;2023-03-14T05:57:48;10.05;;;4.45;;
74791;SDS011;63319;46.046;17.802;2023-03-14T06:01:03;7.10;;;4.18;;
74791;SDS011;63319;46.046;17.802;2023-03-14T06:04:18;7.85;;;4.32;;
74791;SDS011;63319;46.046;17.802;2023-03-14T06:07:26;7.37;;;4.50;;
74791;SDS011;63319;46.046;17.802;2023-03-14T06:10:29;7.30;;;3.77;;
74791;SDS011;63319;46.046;17.802;2023-03-14T06:13:32;6.68;;;3.65;;
74791;SDS011;63319;46.046;17.802;2023-03-14T06:16:35;7.88;;;4.22;;
74791;SDS011;63319;46.046;17.802;2023-03-14T06:19:42;8.57;;;4.45;;
74791;SDS011;63319;46.046;17.802;2023-03-14T06:22:51;6.60;;;3.90;;
74791;SDS011;63319;46.046;17.802;2023-03-14T06:25:54;7.97;;;4.20;;
74791;SDS011;63319;46.046;17.802;2023-03-14T06:29:00;8.15;;;4.57;;
74791;SDS011;63319;46.046;17.802;2023-03-14T06:32:10;8.60;;;4.35;;
74791;SDS011;63319;46.046;17.802;2023-03-14T06:35:13;8.25;;;4.30;;
74791;SDS011;63319;46.046;17.802;2023-03-14T06:38:19;7.63;;;4.27;;
74791;SDS011;63319;46.046;17.802;2023-03-14T06:41:30;7.20;;;4.10;;
74791;SDS011;63319;46.046;17.802;2023-03-14T06:44:35;7.20;;;4.18;;
74791;SDS011;63319;46.046;17.802;2023-03-14T06:47:39;7.75;;;4.13;;
74791;SDS011;63319;46.046;17.802;2023-03-14T06:50:43;9.07;;;4.50;;
74791;SDS011;63319;46.046;17.802;2023-03-14T06:53:45;9.73;;;4.20;;
74791;SDS011;63319;46.046;17.802;2023-03-14T06:56:50;8.17;;;4.73;;
74791;SDS011;63319;46.046;17.802;2023-03-14T06:59:53;8.60;;;3.60;;
74791;SDS011;63319;46.046;17.802;2023-03-14T07:02:57;9.48;;;4.20;;
74791;SDS011;63319;46.046;17.802;2023-03-14T07:06:04;12.32;;;4.38;;
74791;SDS011;63319;46.046;17.802;2023-03-14T07:09:08;7.93;;;3.93;;
74791;SDS011;63319;46.046;17.802;2023-03-14T07:12:16;8.37;;;4.27;;
74791;SDS011;63319;46.046;17.802;2023-03-14T07:15:22;11.02;;;4.20;;
74791;SDS011;63319;46.046;17.802;2023-03-14T07:18:53;9.73;;;4.65;;
74791;SDS011;63319;46.046;17.802;2023-03-14T07:22:01;9.90;;;4.18;;
74791;SDS011;63319;46.046;17.802;2023-03-14T07:25:23;10.13;;;4.40;;
74791;SDS011;63319;46.046;17.802;2023-03-14T07:28:33;8.53;;;4.77;;
74791;SDS011;63319;46.046;17.802;2023-03-14T07:31:42;8.27;;;4.05;;
74791;SDS011;63319;46.046;17.802;2023-03-14T07:34:46;8.45;;;4.32;;
74791;SDS011;63319;46.046;17.802;2023-03-14T07:37:49;8.00;;;4.40;;
74791;SDS011;63319;46.046;17.802;2023-03-14T07:40:59;9.33;;;5.03;;
74791;SDS011;63319;46.046;17.802;2023-03-14T07:44:10;11.83;;;6.07;;
74791;SDS011;63319;46.046;17.802;2023-03-14T07:47:14;14.57;;;6.38;;
74791;SDS011;63319;46.046;17.802;2023-03-14T07:50:18;17.35;;;7.95;;
74791;SDS011;63319;46.046;17.802;2023-03-14T07:53:45;16.95;;;9.38;;
74791;SDS011;63319;46.046;17.802;2023-03-14T07:56:48;17.43;;;9.87;;
74791;SDS011;63319;46.046;17.802;2023-03-14T07:59:51;21.43;;;10.83;;
74791;SDS011;63319;46.046;17.802;2023-03-14T08:02:57;19.00;;;9.80;;
74791;SDS011;63319;46.046;17.802;2023-03-14T08:06:03;17.08;;;9.32;;
74791;SDS011;63319;46.046;17.802;2023-03-14T08:09:14;15.40;;;8.68;;
74791;SDS011;63319;46.046;17.802;2023-03-14T08:12:17;17.00;;;8.13;;
74791;SDS011;63319;46.046;17.802;2023-03-14T08:15:20;14.37;;;7.53;;
74791;SDS011;63319;46.046;17.802;2023-03-14T08:18:24;13.68;;;7.32;;
74791;SDS011;63319;46.046;17.802;2023-03-14T08:21:27;11.57;;;7.13;;
74791;SDS011;63319;46.046;17.802;2023-03-14T08:24:33;14.48;;;7.15;;
74791;SDS011;63319;46.046;17.802;2023-03-14T08:27:36;13.40;;;6.47;;
74791;SDS011;63319;46.046;17.802;2023-03-14T08:30:43;11.63;;;6.27;;
74791;SDS011;63319;46.046;17.802;2023-03-14T08:33:49;17.77;;;6.57;;
74791;SDS011;63319;46.046;17.802;2023-03-14T08:36:54;13.27;;;6.60;;
74791;SDS011;63319;46.046;17.802;2023-03-14T08:39:59;14.48;;;5.72;;
74791;SDS011;63319;46.046;17.802;2023-03-14T08:43:11;9.40;;;5.17;;
74791;SDS011;63319;46.046;17.802;2023-03-14T08:46:13;10.47;;;5.53;;
74791;SDS011;63319;46.046;17.802;2023-03-14T08:49:18;10.65;;;5.30;;
74791;SDS011;63319;46.046;17.802;2023-03-14T08:52:22;9.63;;;5.10;;
74791;SDS011;63319;46.046;17.802;2023-03-14T08:55:29;8.50;;;4.35;;
74791;SDS011;63319;46.046;17.802;2023-03-14T08:58:32;9.73;;;4.57;;
74791;SDS011;63319;46.046;17.802;2023-03-14T09:01:40;12.97;;;4.27;;
74791;SDS011;63319;46.046;17.802;2023-03-14T09:04:46;11.18;;;4.68;;
74791;SDS011;63319;46.046;17.802;2023-03-14T09:07:49;8.25;;;3.53;;
74791;SDS011;63319;46.046;17.802;2023-03-14T09:10:52;7.20;;;3.67;;
74791;SDS011;63319;46.046;17.802;2023-03-14T09:13:55;6.87;;;3.57;;
74791;SDS011;63319;46.046;17.802;2023-03-14T09:16:58;8.10;;;3.40;;
74791;SDS011;63319;46.046;17.802;2023-03-14T09:20:02;7.85;;;3.72;;
74791;SDS011;63319;46.046;17.802;2023-03-14T09:23:09;7.13;;;3.65;;
74791;SDS011;63319;46.046;17.802;2023-03-14T09:26:12;7.60;;;3.75;;
74791;SDS011;63319;46.046;17.802;2023-03-14T09:29:21;7.23;;;3.80;;
74791;SDS011;63319;46.046;17.802;2023-03-14T09:32:30;7.90;;;3.87;;
74791;SDS011;63319;46.046;17.802;2023-03-14T09:35:34;9.60;;;4.00;;
74791;SDS011;63319;46.046;17.802;2023-03-14T09:38:39;7.20;;;3.13;;
74791;SDS011;63319;46.046;17.802;2023-03-14T09:41:47;7.00;;;3.05;;
74791;SDS011;63319;46.046;17.802;2023-03-14T09:44:57;7.30;;;2.43;;
74791;SDS011;63319;46.046;17.802;2023-03-14T09:48:29;8.63;;;3.20;;
74791;SDS011;63319;46.046;17.802;2023-03-14T09:51:35;11.10;;;2.97;;
74791;SDS011;63319;46.046;17.802;2023-03-14T09:54:58;9.32;;;2.70;;
74791;SDS011;63319;46.046;17.802;2023-03-14T09:58:40;5.75;;;2.60;;
74791;SDS011;63319;46.046;17.802;2023-03-14T10:01:45;5.67;;;2.33;;
74791;SDS011;63319;46.046;17.802;2023-03-14T10:04:49;8.37;;;2.70;;
74791;SDS011;63319;46.046;17.802;2023-03-14T10:07:57;5.47;;;2.53;;
74791;SDS011;63319;46.046;17.802;2023-03-14T10:11:00;6.43;;;2.30;;
74791;SDS011;63319;46.046;17.802;2023-03-14T10:14:09;6.93;;;2.50;;
74791;SDS011;63319;46.046;17.802;2023-03-14T10:17:15;7.27;;;2.63;;
74791;SDS011;63319;46.046;17.802;2023-03-14T10:23:37;6.05;;;2.30;;
74791;SDS011;63319;46.046;17.802;2023-03-14T10:26:40;4.80;;;2.05;;
74791;SDS011;63319;46.046;17.802;2023-03-14T10:30:00;6.50;;;2.42;;
74791;SDS011;63319;46.046;17.802;2023-03-14T10:33:09;6.40;;;2.50;;
74791;SDS011;63319;46.046;17.802;2023-03-14T10:36:23;7.50;;;2.27;;
74791;SDS011;63319;46.046;17.802;2023-03-14T10:40:02;8.82;;;2.30;;
74791;SDS011;63319;46.046;17.802;2023-03-14T10:43:01;6.35;;;1.85;;
74791;SDS011;63319;46.046;17.802;2023-03-14T10:46:13;5.55;;;1.52;;
74791;SDS011;63319;46.046;17.802;2023-03-14T10:49:37;4.47;;;1.90;;
74791;SDS011;63319;46.046;17.802;2023-03-14T10:52:46;5.70;;;1.70;;
74791;SDS011;63319;46.046;17.802;2023-03-14T10:56:06;4.38;;;1.83;;
74791;SDS011;63319;46.046;17.802;2023-03-14T10:59:13;4.20;;;1.58;;
74791;SDS011;63319;46.046;17.802;2023-03-14T11:05:46;6.00;;;1.77;;
74791;SDS011;63319;46.046;17.802;2023-03-14T11:15:23;7.68;;;1.73;;
74791;SDS011;63319;46.046;17.802;2023-03-14T11:25:27;5.47;;;1.67;;
74791;SDS011;63319;46.046;17.802;2023-03-14T11:28:37;3.72;;;1.67;;
74791;SDS011;63319;46.046;17.802;2023-03-14T11:31:42;5.38;;;1.70;;
74791;SDS011;63319;46.046;17.802;2023-03-14T11:34:50;6.40;;;1.42;;
74791;SDS011;63319;46.046;17.802;2023-03-14T11:38:03;5.60;;;1.50;;
74791;SDS011;63319;46.046;17.802;2023-03-14T11:41:25;5.57;;;1.60;;
74791;SDS011;63319;46.046;17.802;2023-03-14T11:44:38;3.88;;;1.50;;
74791;SDS011;63319;46.046;17.802;2023-03-14T11:47:42;4.25;;;1.40;;
74791;SDS011;63319;46.046;17.802;2023-03-14T11:50:49;6.75;;;1.77;;
74791;SDS011;63319;46.046;17.802;2023-03-14T11:54:18;4.60;;;1.50;;
74791;SDS011;63319;46.046;17.802;2023-03-14T11:57:41;3.03;;;1.40;;
74791;SDS011;63319;46.046;17.802;2023-03-14T12:00:44;4.32;;;1.45;;
74791;SDS011;63319;46.046;17.802;2023-03-14T12:04:11;2.55;;;1.30;;
74791;SDS011;63319;46.046;17.802;2023-03-14T12:07:28;4.35;;;1.50;;
74791;SDS011;63319;46.046;17.802;2023-03-14T12:10:55;3.47;;;1.30;;
74791;SDS011;63319;46.046;17.802;2023-03-14T12:14:02;4.07;;;1.47;;
74791;SDS011;63319;46.046;17.802;2023-03-14T12:17:19;4.47;;;1.75;;
74791;SDS011;63319;46.046;17.802;2023-03-14T12:20:25;4.18;;;1.40;;
74791;SDS011;63319;46.046;17.802;2023-03-14T12:23:34;3.28;;;1.30;;
74791;SDS011;63319;46.046;17.802;2023-03-14T12:26:55;4.00;;;1.30;;
74791;SDS011;63319;46.046;17.802;2023-03-14T12:30:00;3.13;;;1.30;;
74791;SDS011;63319;46.046;17.802;2023-03-14T12:36:12;6.15;;;1.40;;
74791;SDS011;63319;46.046;17.802;2023-03-14T12:42:51;6.47;;;1.47;;
74791;SDS011;63319;46.046;17.802;2023-03-14T12:46:07;6.27;;;1.37;;
74791;SDS011;63319;46.046;17.802;2023-03-14T12:49:20;6.30;;;1.67;;
74791;SDS011;63319;46.046;17.802;2023-03-14T12:55:50;3.92;;;1.35;;
74791;SDS011;63319;46.046;17.802;2023-03-14T13:03:00;3.50;;;1.30;;
74791;SDS011;63319;46.046;17.802;2023-03-14T13:09:53;6.05;;;1.58;;
74791;SDS011;63319;46.046;17.802;2023-03-14T13:16:05;6.23;;;1.57;;
74791;SDS011;63319;46.046;17.802;2023-03-14T13:19:18;10.73;;;2.37;;
74791;SDS011;63319;46.046;17.802;2023-03-14T13:22:24;6.55;;;1.50;;
74791;SDS011;63319;46.046;17.802;2023-03-14T13:25:33;9.23;;;1.92;;
74791;SDS011;63319;46.046;17.802;2023-03-14T13:28:38;8.35;;;1.75;;
74791;SDS011;63319;46.046;17.802;2023-03-14T13:31:43;9.73;;;1.80;;
74791;SDS011;63319;46.046;17.802;2023-03-14T13:34:51;7.40;;;1.40;;
74791;SDS011;63319;46.046;17.802;2023-03-14T13:37:57;5.75;;;1.63;;
74791;SDS011;63319;46.046;17.802;2023-03-14T13:41:13;10.68;;;1.80;;
74791;SDS011;63319;46.046;17.802;2023-03-14T13:44:18;7.03;;;2.25;;
74791;SDS011;63319;46.046;17.802;2023-03-14T13:47:42;5.97;;;1.73;;
74791;SDS011;63319;46.046;17.802;2023-03-14T13:50:55;11.23;;;1.90;;
74791;SDS011;63319;46.046;17.802;2023-03-14T13:54:01;7.03;;;1.48;;
74791;SDS011;63319;46.046;17.802;2023-03-14T13:57:05;5.53;;;1.55;;
74791;SDS011;63319;46.046;17.802;2023-03-14T14:00:16;5.78;;;1.70;;
74791;SDS011;63319;46.046;17.802;2023-03-14T14:03:26;6.57;;;1.60;;
74791;SDS011;63319;46.046;17.802;2023-03-14T14:06:30;7.80;;;1.60;;
74791;SDS011;63319;46.046;17.802;2023-03-14T14:09:56;5.22;;;1.60;;
74791;SDS011;63319;46.046;17.802;2023-03-14T14:13:03;7.28;;;1.38;;
74791;SDS011;63319;46.046;17.802;2023-03-14T14:16:10;6.32;;;1.88;;
74791;SDS011;63319;46.046;17.802;2023-03-14T14:19:14;7.50;;;1.70;;
74791;SDS011;63319;46.046;17.802;2023-03-14T14:22:19;6.23;;;1.67;;
74791;SDS011;63319;46.046;17.802;2023-03-14T14:25:22;9.52;;;1.65;;
74791;SDS011;63319;46.046;17.802;2023-03-14T14:28:31;5.78;;;1.70;;
74791;SDS011;63319;46.046;17.802;2023-03-14T14:31:36;7.32;;;1.63;;
74791;SDS011;63319;46.046;17.802;2023-03-14T14:34:46;8.20;;;1.50;;
74791;SDS011;63319;46.046;17.802;2023-03-14T14:37:58;5.77;;;1.40;;
74791;SDS011;63319;46.046;17.802;2023-03-14T14:41:01;5.70;;;1.60;;
74791;SDS011;63319;46.046;17.802;2023-03-14T14:44:05;5.43;;;1.20;;
74791;SDS011;63319;46.046;17.802;2023-03-14T14:47:12;4.05;;;1.42;;
74791;SDS011;63319;46.046;17.802;2023-03-14T14:50:21;5.50;;;1.27;;
74791;SDS011;63319;46.046;17.802;2023-03-14T14:53:30;5.50;;;1.33;;
74791;SDS011;63319;46.046;17.802;2023-03-14T14:56:38;6.05;;;1.42;;
74791;SDS011;63319;46.046;17.802;2023-03-14T14:59:42;5.10;;;1.73;;
74791;SDS011;63319;46.046;17.802;2023-03-14T15:02:47;4.65;;;1.27;;
74791;SDS011;63319;46.046;17.802;2023-03-14T15:05:54;5.70;;;1.37;;
74791;SDS011;63319;46.046;17.802;2023-03-14T15:08:59;10.13;;;1.47;;
74791;SDS011;63319;46.046;17.802;2023-03-14T15:12:02;5.43;;;1.38;;
74791;SDS011;63319;46.046;17.802;2023-03-14T15:15:05;5.22;;;1.40;;
74791;SDS011;63319;46.046;17.802;2023-03-14T15:18:16;6.45;;;1.40;;
74791;SDS011;63319;46.046;17.802;2023-03-14T15:21:20;6.60;;;1.30;;
74791;SDS011;63319;46.046;17.802;2023-03-14T15:24:23;4.50;;;1.47;;
74791;SDS011;63319;46.046;17.802;2023-03-14T15:27:26;3.97;;;1.25;;
74791;SDS011;63319;46.046;17.802;2023-03-14T15:30:33;5.20;;;1.20;;
74791;SDS011;63319;46.046;17.802;2023-03-14T15:33:36;4.50;;;1.33;;
74791;SDS011;63319;46.046;17.802;2023-03-14T15:36:39;3.63;;;1.23;;
74791;SDS011;63319;46.046;17.802;2023-03-14T15:39:42;5.30;;;1.47;;
74791;SDS011;63319;46.046;17.802;2023-03-14T15:42:45;5.75;;;1.50;;
74791;SDS011;63319;46.046;17.802;2023-03-14T15:45:48;5.22;;;1.30;;
74791;SDS011;63319;46.046;17.802;2023-03-14T15:48:52;3.90;;;1.20;;
74791;SDS011;63319;46.046;17.802;2023-03-14T15:51:55;3.70;;;1.30;;
74791;SDS011;63319;46.046;17.802;2023-03-14T15:54:59;4.00;;;1.40;;
74791;SDS011;63319;46.046;17.802;2023-03-14T15:58:02;3.10;;;1.17;;
74791;SDS011;63319;46.046;17.802;2023-03-14T16:01:07;3.88;;;1.10;;
74791;SDS011;63319;46.046;17.802;2023-03-14T16:04:14;3.53;;;1.50;;
74791;SDS011;63319;46.046;17.802;2023-03-14T16:07:23;4.30;;;1.20;;
74791;SDS011;63319;46.046;17.802;2023-03-14T16:10:27;2.57;;;1.10;;
74791;SDS011;63319;46.046;17.802;2023-03-14T16:13:31;4.15;;;1.42;;
74791;SDS011;63319;46.046;17.802;2023-03-14T16:16:34;4.15;;;1.10;;
74791;SDS011;63319;46.046;17.802;2023-03-14T16:19:37;2.50;;;1.00;;
74791;SDS011;63319;46.046;17.802;2023-03-14T16:22:40;3.63;;;1.10;;
74791;SDS011;63319;46.046;17.802;2023-03-14T16:25:43;3.17;;;1.30;;
74791;SDS011;63319;46.046;17.802;2023-03-14T16:28:47;3.67;;;1.40;;
74791;SDS011;63319;46.046;17.802;2023-03-14T16:31:50;5.35;;;1.23;;
74791;SDS011;63319;46.046;17.802;2023-03-14T16:34:53;2.53;;;1.00;;
74791;SDS011;63319;46.046;17.802;2023-03-14T16:37:59;4.03;;;1.30;;
74791;SDS011;63319;46.046;17.802;2023-03-14T16:41:04;4.13;;;1.47;;
74791;SDS011;63319;46.046;17.802;2023-03-14T16:44:14;3.30;;;1.10;;
74791;SDS011;63319;46.046;17.802;2023-03-14T16:47:17;3.83;;;1.00;;
74791;SDS011;63319;46.046;17.802;2023-03-14T16:50:21;2.90;;;1.08;;
74791;SDS011;63319;46.046;17.802;2023-03-14T16:53:25;3.97;;;1.20;;
74791;SDS011;63319;46.046;17.802;2023-03-14T16:56:30;3.77;;;1.30;;
74791;SDS011;63319;46.046;17.802;2023-03-14T16:59:34;2.55;;;1.13;;
74791;SDS011;63319;46.046;17.802;2023-03-14T17:02:37;3.28;;;1.02;;
74791;SDS011;63319;46.046;17.802;2023-03-14T17:05:44;3.83;;;1.25;;
74791;SDS011;63319;46.046;17.802;2023-03-14T17:08:49;2.37;;;1.00;;
74791;SDS011;63319;46.046;17.802;2023-03-14T17:11:54;5.70;;;1.20;;
74791;SDS011;63319;46.046;17.802;2023-03-14T17:14:58;2.92;;;1.10;;
74791;SDS011;63319;46.046;17.802;2023-03-14T17:18:03;3.00;;;1.02;;
74791;SDS011;63319;46.046;17.802;2023-03-14T17:21:07;3.40;;;1.33;;
74791;SDS011;63319;46.046;17.802;2023-03-14T17:24:12;3.57;;;1.10;;
74791;SDS011;63319;46.046;17.802;2023-03-14T17:27:17;3.07;;;1.10;;
74791;SDS011;63319;46.046;17.802;2023-03-14T17:30:22;3.03;;;1.17;;
74791;SDS011;63319;46.046;17.802;2023-03-14T17:33:26;2.70;;;0.90;;
74791;SDS011;63319;46.046;17.802;2023-03-14T17:36:29;3.45;;;1.10;;
74791;SDS011;63319;46.046;17.802;2023-03-14T17:39:34;3.10;;;1.20;;
74791;SDS011;63319;46.046;17.802;2023-03-14T17:42:42;2.80;;;1.10;;
74791;SDS011;63319;46.046;17.802;2023-03-14T17:45:46;2.38;;;0.90;;
74791;SDS011;63319;46.046;17.802;2023-03-14T17:48:49;4.07;;;1.30;;
74791;SDS011;63319;46.046;17.802;2023-03-14T17:51:53;2.35;;;1.13;;
74791;SDS011;63319;46.046;17.802;2023-03-14T17:54:57;2.87;;;1.17;;
74791;SDS011;63319;46.046;17.802;2023-03-14T17:58:01;2.33;;;1.20;;
74791;SDS011;63319;46.046;17.802;2023-03-14T18:01:12;3.35;;;0.90;;
74791;SDS011;63319;46.046;17.802;2023-03-14T18:04:19;2.55;;;1.30;;
74791;SDS011;63319;46.046;17.802;2023-03-14T18:07:23;3.75;;;1.50;;
74791;SDS011;63319;46.046;17.802;2023-03-14T18:10:28;3.07;;;1.30;;
74791;SDS011;63319;46.046;17.802;2023-03-14T18:13:38;4.33;;;1.27;;
74791;SDS011;63319;46.046;17.802;2023-03-14T18:16:43;2.97;;;1.40;;
74791;SDS011;63319;46.046;17.802;2023-03-14T18:19:50;2.53;;;1.10;;
74791;SDS011;63319;46.046;17.802;2023-03-14T18:22:54;4.82;;;1.38;;
74791;SDS011;63319;46.046;17.802;2023-03-14T18:25:59;2.13;;;1.10;;
74791;SDS011;63319;46.046;17.802;2023-03-14T18:29:03;3.80;;;1.47;;
74791;SDS011;63319;46.046;17.802;2023-03-14T18:32:08;4.18;;;1.30;;
74791;SDS011;63319;46.046;17.802;2023-03-14T18:35:12;3.00;;;1.08;;
74791;SDS011;63319;46.046;17.802;2023-03-14T18:38:16;3.65;;;1.30;;
74791;SDS011;63319;46.046;17.802;2023-03-14T18:41:21;2.73;;;1.17;;
74791;SDS011;63319;46.046;17.802;2023-03-14T18:44:28;3.53;;;1.10;;
74791;SDS011;63319;46.046;17.802;2023-03-14T18:47:33;3.03;;;1.35;;
74791;SDS011;63319;46.046;17.802;2023-03-14T18:50:41;3.78;;;1.63;;
74791;SDS011;63319;46.046;17.802;2023-03-14T18:54:04;2.47;;;1.10;;
74791;SDS011;63319;46.046;17.802;2023-03-14T18:57:12;2.07;;;0.80;;
74791;SDS011;63319;46.046;17.802;2023-03-14T19:00:17;4.53;;;0.97;;
74791;SDS011;63319;46.046;17.802;2023-03-14T19:03:23;3.03;;;1.10;;
74791;SDS011;63319;46.046;17.802;2023-03-14T19:06:30;2.83;;;1.15;;
74791;SDS011;63319;46.046;17.802;2023-03-14T19:09:35;2.47;;;1.00;;
74791;SDS011;63319;46.046;17.802;2023-03-14T19:12:39;2.33;;;1.10;;
74791;SDS011;63319;46.046;17.802;2023-03-14T19:15:43;3.27;;;1.27;;
74791;SDS011;63319;46.046;17.802;2023-03-14T19:18:50;3.67;;;1.10;;
74791;SDS011;63319;46.046;17.802;2023-03-14T19:21:54;2.40;;;0.90;;
74791;SDS011;63319;46.046;17.802;2023-03-14T19:25:00;2.35;;;1.10;;